Bethune, Canada
Current Conditions -  °F | °C
As of 9:00 AM on Wednesday 22 Oct 2014 (Local Time) from CYMJ Reporting Station
Broken Clouds Broken Clouds  
Wind Chill: 50°   Ceiling: 8000
Heat Index: 50°   Visibility: 15mi
Dew Point: 48°   Wind: 15mph
Humidity: 94%   Direction: 300°WNW
Pressure: 29.7"   Gusts: NA
Location:  50.7°N, 105.22°W
Report Text: CYMJ 221500Z 30013KT 15SM SCT008 BKN080 BKN100 10/09 A2970 RMKSF3AC2AC2 ACC ASOCTD SLP069
Loading
Personal Weather Stations






























Interactive Weather Map
Tropical Storm Tracking
New forecast layout! Learn more

10-Day Weather Forecast

Advertisements
Track Severe Weather on mobile